Time;durP1;ratioP1;P1;durP2;ratioP2;P2;SDS_P1;SDS_P2;PMS_P1;PMS_P2;Temp;Humidity;BMP_temperature;BMP_pressure;BME280_temperature;BME280_humidity;BME280_pressure;Samples;Min_cycle;Max_cycle;Signal;HPM_P1;HPM_P2
2021/11/21 00:00:12;;;;;;;175.07;63.50;;;29.30;81.80;;;;;;5063943;28;20043;-50
2021/11/21 00:02:39;;;;;;;151.23;52.10;;;29.30;82.00;;;;;;5063992;28;20024;-45
2021/11/21 00:05:06;;;;;;;99.75;35.45;;;29.20;82.20;;;;;;5064150;28;20258;-47
2021/11/21 00:07:33;;;;;;;92.53;25.30;;;29.20;82.40;;;;;;5063801;28;20012;-45
2021/11/21 00:10:01;;;;;;;323.73;28.33;;;29.20;82.50;;;;;;5064383;28;20320;-49
2021/11/21 00:12:27;;;;;;;209.65;18.60;;;29.10;82.50;;;;;;5063774;28;20232;-45
2021/11/21 00:14:54;;;;;;;123.30;13.43;;;29.10;82.30;;;;;;5063074;28;20032;-45
2021/11/21 00:17:21;;;;;;;54.20;10.38;;;29.10;82.30;;;;;;5063676;28;20021;-51
2021/11/21 00:19:47;;;;;;;56.13;10.73;;;29.10;82.30;;;;;;5064202;28;20035;-44
2021/11/21 00:22:15;;;;;;;68.65;14.90;;;29.10;82.20;;;;;;5063585;28;20013;-49
2021/11/21 00:24:43;;;;;;;68.30;25.23;;;29.10;82.40;;;;;;5063894;28;20213;-49
2021/11/21 00:27:10;;;;;;;81.75;34.45;;;29.00;82.30;;;;;;5063698;28;20067;-46
2021/11/21 00:29:37;;;;;;;77.03;36.55;;;29.00;82.10;;;;;;5063001;28;20025;-45
2021/11/21 00:32:04;;;;;;;76.45;32.95;;;28.90;82.30;;;;;;5063459;28;20028;-50
2021/11/21 00:34:31;;;;;;;69.00;31.05;;;28.90;82.20;;;;;;5063885;28;20025;-48
2021/11/21 00:36:58;;;;;;;52.58;25.25;;;28.80;82.30;;;;;;5063185;28;20250;-45
2021/11/21 00:39:24;;;;;;;85.97;21.00;;;28.80;82.40;;;;;;5063879;28;20075;-46
2021/11/21 00:41:52;;;;;;;289.08;124.25;;;28.70;82.70;;;;;;5063247;28;20206;-50
2021/11/21 00:44:20;;;;;;;475.70;238.75;;;28.70;82.50;;;;;;5063086;28;20017;-47
2021/11/21 00:46:46;;;;;;;204.45;66.95;;;28.70;82.40;;;;;;5063339;28;20032;-51
2021/11/21 00:49:15;;;;;;;147.77;41.53;;;28.70;82.30;;;;;;5063828;28;20029;-44
2021/11/21 00:51:43;;;;;;;100.10;25.77;;;28.80;82.50;;;;;;5061551;28;20067;-50
2021/11/21 00:54:26;;;;;;;58.22;17.33;;;28.70;82.90;;;;;;5061592;28;20025;-49
2021/11/21 00:56:54;;;;;;;55.08;14.45;;;28.80;83.20;;;;;;5062600;28;20206;-44
2021/11/21 00:59:21;;;;;;;46.95;12.48;;;28.80;82.60;;;;;;5062881;28;20017;-48
2021/11/21 01:01:49;;;;;;;32.70;9.68;;;28.80;82.60;;;;;;5062601;28;20013;-50
2021/11/21 01:04:16;;;;;;;42.25;16.35;;;28.80;82.30;;;;;;5063190;28;20306;-48
2021/11/21 01:06:44;;;;;;;44.30;17.23;;;28.70;82.10;;;;;;5062636;28;20241;-51
2021/11/21 01:09:12;;;;;;;33.10;12.48;;;28.70;82.40;;;;;;5063105;28;20187;-47
2021/11/21 01:11:39;;;;;;;103.28;12.43;;;28.60;82.90;;;;;;5062814;28;20079;-45
2021/11/21 01:14:06;;;;;;;52.88;9.13;;;28.70;82.60;;;;;;5062814;28;20024;-48
2021/11/21 01:16:33;;;;;;;64.05;10.23;;;28.60;82.40;;;;;;5062978;28;20044;-46
2021/11/21 01:19:00;;;;;;;36.42;7.75;;;28.60;82.30;;;;;;5061840;28;20067;-48
2021/11/21 01:21:29;;;;;;;41.08;8.10;;;28.70;82.10;;;;;;5061586;28;20016;-49
2021/11/21 01:23:55;;;;;;;28.88;6.90;;;28.70;82.10;;;;;;5062032;28;20024;-50
2021/11/21 01:26:22;;;;;;;27.13;6.80;;;28.70;82.10;;;;;;5062699;28;20046;-44
2021/11/21 01:28:51;;;;;;;20.23;7.45;;;28.80;81.80;;;;;;5064644;28;20028;-46
2021/11/21 01:31:18;;;;;;;19.63;6.45;;;28.80;81.60;;;;;;5065882;28;20025;-47
2021/11/21 01:33:45;;;;;;;59.50;9.38;;;28.80;81.70;;;;;;5066428;28;20036;-50
2021/11/21 01:36:11;;;;;;;49.45;8.98;;;28.80;82.00;;;;;;5065220;28;20021;-45
2021/11/21 01:38:40;;;;;;;48.63;9.32;;;28.90;81.70;;;;;;5066064;28;20052;-45
2021/11/21 01:41:07;;;;;;;49.08;7.80;;;28.90;81.40;;;;;;5066570;28;20215;-45
2021/11/21 01:43:34;;;;;;;38.95;9.27;;;29.00;81.00;;;;;;5066615;28;20024;-48
2021/11/21 01:46:01;;;;;;;25.83;7.80;;;29.00;80.80;;;;;;5066695;28;20032;-48
2021/11/21 01:48:27;;;;;;;35.00;7.38;;;29.00;80.60;;;;;;5066445;28;20095;-49
2021/11/21 01:50:54;;;;;;;35.92;7.47;;;29.00;80.50;;;;;;5066439;28;20240;-53
2021/11/21 01:53:21;;;;;;;26.00;6.97;;;29.00;80.30;;;;;;5066407;28;20052;-47
2021/11/21 01:55:48;;;;;;;61.50;9.52;;;29.00;80.20;;;;;;5065767;28;20371;-48
2021/11/21 01:58:15;;;;;;;55.08;9.20;;;29.10;80.20;;;;;;5065697;28;20025;-48
2021/11/21 02:00:44;;;;;;;43.60;7.63;;;29.10;80.20;;;;;;5066134;28;20183;-50
2021/11/21 02:03:11;;;;;;;36.75;8.15;;;29.00;80.10;;;;;;5066092;28;20063;-53
2021/11/21 02:05:38;;;;;;;19.52;6.72;;;29.00;79.90;;;;;;5066068;28;20045;-48
2021/11/21 02:08:05;;;;;;;26.00;6.97;;;29.00;79.80;;;;;;5066154;28;20024;-49
2021/11/21 02:10:35;;;;;;;26.73;6.47;;;29.00;79.70;;;;;;5066007;28;20032;-48
2021/11/21 02:13:03;;;;;;;17.52;6.38;;;29.00;79.60;;;;;;5066117;28;20027;-46
2021/11/21 02:15:30;;;;;;;18.92;6.18;;;29.00;79.50;;;;;;5066159;28;20032;-46
2021/11/21 02:17:56;;;;;;;18.02;6.00;;;29.00;79.20;;;;;;5066005;28;20017;-52
2021/11/21 02:20:43;;;;;;;10.73;6.15;;;29.00;79.10;;;;;;5065877;28;20020;-46
2021/11/21 02:23:11;;;;;;;13.43;5.47;;;29.00;79.00;;;;;;5065837;28;20233;-49
2021/11/21 02:25:38;;;;;;;13.40;5.72;;;29.00;79.00;;;;;;5066114;28;20049;-48
2021/11/21 02:28:06;;;;;;;10.98;5.97;;;29.00;78.90;;;;;;5065824;28;20240;-47
2021/11/21 02:30:33;;;;;;;13.45;5.57;;;29.00;78.90;;;;;;5065779;28;20360;-53
2021/11/21 02:33:00;;;;;;;14.02;5.50;;;29.00;78.70;;;;;;5065744;28;20027;-51
2021/11/21 02:35:27;;;;;;;11.90;5.30;;;29.00;78.70;;;;;;5065700;28;20029;-45
2021/11/21 02:37:53;;;;;;;13.23;5.18;;;29.00;78.60;;;;;;5064958;28;20017;-47
2021/11/21 02:40:20;;;;;;;12.57;5.22;;;29.00;78.60;;;;;;5065724;28;20025;-47
2021/11/21 02:42:47;;;;;;;10.88;5.03;;;29.00;78.60;;;;;;5065446;28;20082;-52
2021/11/21 02:45:17;;;;;;;12.55;5.25;;;29.00;78.60;;;;;;5065861;28;20044;-47
2021/11/21 02:47:44;;;;;;;12.20;5.50;;;29.00;78.50;;;;;;5065458;28;20253;-51
2021/11/21 02:50:16;;;;;;;10.30;5.70;;;28.90;78.40;;;;;;5066271;28;20029;-45
2021/11/21 02:52:43;;;;;;;18.55;5.40;;;28.90;78.50;;;;;;5064325;28;20056;-50
2021/11/21 02:55:10;;;;;;;13.00;4.90;;;28.90;78.60;;;;;;5065755;28;20317;-53
2021/11/21 02:57:37;;;;;;;11.23;5.25;;;28.90;78.70;;;;;;5065445;28;20024;-52
2021/11/21 03:00:06;;;;;;;9.98;5.18;;;28.90;78.80;;;;;;5065081;28;20073;-47
2021/11/21 03:02:33;;;;;;;19.92;5.78;;;28.90;78.90;;;;;;5065374;28;20309;-47
2021/11/21 03:04:59;;;;;;;11.25;5.50;;;28.90;78.90;;;;;;5065333;28;20083;-48
2021/11/21 03:07:26;;;;;;;33.30;6.20;;;28.90;79.00;;;;;;5065190;28;20055;-48
2021/11/21 03:09:53;;;;;;;17.08;5.95;;;28.90;79.00;;;;;;5065510;28;20028;-54
2021/11/21 03:12:21;;;;;;;15.93;5.50;;;28.80;78.80;;;;;;5065216;28;20024;-49
2021/11/21 03:14:48;;;;;;;20.33;6.63;;;28.80;79.00;;;;;;5065206;28;20033;-49
2021/11/21 03:17:16;;;;;;;15.30;6.00;;;28.80;79.10;;;;;;5064874;28;20021;-45
2021/11/21 03:19:43;;;;;;;15.15;5.88;;;28.80;78.90;;;;;;5065463;28;20074;-50
2021/11/21 03:22:10;;;;;;;21.52;6.30;;;28.80;78.90;;;;;;5064724;28;20246;-51
2021/11/21 03:24:36;;;;;;;23.30;6.75;;;28.80;78.80;;;;;;5065188;28;20214;-50
2021/11/21 03:27:03;;;;;;;22.48;7.20;;;28.80;78.80;;;;;;5064741;28;20020;-42
2021/11/21 03:29:30;;;;;;;19.13;6.72;;;28.80;78.90;;;;;;5064787;28;20055;-52
2021/11/21 03:31:56;;;;;;;32.10;7.85;;;28.80;78.90;;;;;;5064717;28;20021;-49
2021/11/21 03:34:23;;;;;;;15.82;6.38;;;28.80;79.10;;;;;;5064925;28;20088;-50
2021/11/21 03:36:49;;;;;;;22.40;6.68;;;28.80;78.90;;;;;;5064194;28;20037;-52
2021/11/21 03:39:16;;;;;;;14.95;6.13;;;28.80;79.10;;;;;;5064765;28;20028;-45
2021/11/21 03:41:43;;;;;;;17.67;5.85;;;28.80;79.20;;;;;;5064399;28;20051;-49
2021/11/21 03:44:10;;;;;;;18.67;6.93;;;28.70;79.30;;;;;;5064128;28;20075;-46
2021/11/21 03:46:38;;;;;;;18.40;6.30;;;28.70;79.60;;;;;;5064335;28;20213;-46
2021/11/21 03:49:06;;;;;;;15.45;6.38;;;28.70;79.70;;;;;;5064391;28;20036;-48
2021/11/21 03:51:33;;;;;;;11.77;5.90;;;28.70;79.70;;;;;;5062428;28;20048;-45
2021/11/21 03:54:00;;;;;;;14.27;5.22;;;28.70;79.80;;;;;;5064498;28;20021;-50
2021/11/21 03:56:26;;;;;;;10.82;5.20;;;28.70;80.00;;;;;;5064108;28;20024;-46
2021/11/21 03:58:53;;;;;;;12.40;5.65;;;28.60;79.90;;;;;;5064461;28;20017;-49
2021/11/21 04:01:20;;;;;;;27.02;6.93;;;28.70;80.10;;;;;;5064155;28;20206;-46
2021/11/21 04:03:46;;;;;;;27.45;6.85;;;28.60;80.00;;;;;;5064268;28;20032;-49
2021/11/21 04:06:13;;;;;;;31.63;7.68;;;28.60;80.30;;;;;;5063890;28;20340;-51
2021/11/21 04:08:41;;;;;;;39.30;7.97;;;28.60;80.60;;;;;;5064266;28;20031;-55
2021/11/21 04:11:08;;;;;;;32.50;6.82;;;28.60;80.70;;;;;;5064082;28;20025;-47
2021/11/21 04:13:35;;;;;;;22.50;6.97;;;28.60;80.70;;;;;;5064039;28;20032;-52
2021/11/21 04:16:02;;;;;;;20.95;6.15;;;28.60;80.80;;;;;;5064025;28;20020;-45
2021/11/21 04:18:29;;;;;;;15.25;5.68;;;28.60;80.90;;;;;;5064138;28;20083;-47
2021/11/21 04:20:55;;;;;;;18.88;6.22;;;28.60;81.20;;;;;;5063760;28;20013;-46
2021/11/21 04:23:22;;;;;;;26.90;6.50;;;28.60;81.00;;;;;;5064014;28;20203;-48
2021/11/21 04:25:49;;;;;;;15.57;6.15;;;28.60;81.20;;;;;;5063863;28;20075;-45
2021/11/21 04:28:15;;;;;;;12.93;5.85;;;28.60;81.50;;;;;;5063704;28;20033;-50
2021/11/21 04:30:42;;;;;;;11.95;5.63;;;28.60;81.80;;;;;;5063944;28;20371;-44
2021/11/21 04:33:08;;;;;;;28.40;7.05;;;28.60;81.90;;;;;;5062716;28;20037;-53
2021/11/21 04:35:35;;;;;;;34.83;8.38;;;28.50;82.00;;;;;;5063841;28;20021;-44
2021/11/21 04:38:01;;;;;;;36.28;7.88;;;28.50;82.30;;;;;;5063697;28;20437;-48
2021/11/21 04:40:28;;;;;;;31.33;7.00;;;28.50;82.60;;;;;;5063952;28;20290;-50
2021/11/21 04:42:55;;;;;;;41.05;7.68;;;28.50;82.70;;;;;;5063593;28;20349;-47
2021/11/21 04:45:21;;;;;;;41.05;9.02;;;28.50;82.90;;;;;;5063635;28;20092;-45
2021/11/21 04:47:48;;;;;;;26.02;7.70;;;28.50;83.20;;;;;;5063703;28;20042;-53
2021/11/21 04:50:15;;;;;;;67.97;10.57;;;28.50;83.20;;;;;;5064278;28;20013;-46
2021/11/21 04:52:42;;;;;;;113.43;12.73;;;28.40;83.40;;;;;;5063508;28;20025;-43
2021/11/21 04:55:10;;;;;;;146.90;14.65;;;28.40;83.50;;;;;;5064029;28;20249;-47
2021/11/21 04:57:39;;;;;;;152.05;16.40;;;28.50;83.50;;;;;;5063556;28;20321;-46
2021/11/21 05:00:17;;;;;;;84.38;12.38;;;28.40;83.70;;;;;;5064025;28;20220;-45
2021/11/21 05:02:47;;;;;;;73.22;11.52;;;28.40;83.80;;;;;;5066558;28;20021;-45
2021/11/21 05:05:16;;;;;;;93.82;13.30;;;28.40;83.90;;;;;;5067713;28;20045;-48
2021/11/21 05:07:43;;;;;;;128.13;12.95;;;28.40;84.00;;;;;;5067740;28;20020;-50
2021/11/21 05:10:11;;;;;;;70.85;10.50;;;28.40;84.10;;;;;;5068096;28;20170;-48
2021/11/21 05:12:39;;;;;;;72.43;10.75;;;28.40;84.30;;;;;;5067322;28;20031;-45
2021/11/21 05:15:08;;;;;;;52.92;9.13;;;28.30;84.30;;;;;;5067842;28;20033;-45
2021/11/21 05:17:35;;;;;;;38.65;7.90;;;28.40;84.40;;;;;;5067127;28;20024;-49
2021/11/21 05:20:02;;;;;;;40.17;8.75;;;28.40;84.40;;;;;;5067511;28;20016;-48
2021/11/21 05:22:29;;;;;;;51.85;8.15;;;28.40;84.40;;;;;;5067318;28;20017;-48
2021/11/21 05:24:56;;;;;;;43.67;8.00;;;28.40;84.50;;;;;;5067549;28;20027;-47
2021/11/21 05:27:24;;;;;;;33.60;7.15;;;28.30;84.50;;;;;;5067170;28;20269;-50
2021/11/21 05:29:53;;;;;;;33.58;7.07;;;28.40;84.60;;;;;;5067029;28;20041;-49
2021/11/21 05:32:21;;;;;;;23.30;7.22;;;28.30;84.60;;;;;;5067482;28;20056;-50
2021/11/21 05:34:48;;;;;;;26.85;6.10;;;28.30;84.60;;;;;;5067365;28;20036;-46
2021/11/21 05:37:15;;;;;;;40.40;6.90;;;28.30;84.60;;;;;;5066731;28;20310;-53
2021/11/21 05:39:41;;;;;;;60.53;10.05;;;28.30;84.70;;;;;;5067493;28;20021;-46
2021/11/21 05:42:08;;;;;;;113.90;14.57;;;28.30;84.70;;;;;;5066715;28;20025;-48
2021/11/21 05:44:35;;;;;;;73.97;11.57;;;28.30;84.80;;;;;;5067123;28;20088;-48
2021/11/21 05:47:02;;;;;;;74.97;12.15;;;28.30;84.90;;;;;;5067283;28;20029;-44
2021/11/21 05:49:29;;;;;;;86.57;11.40;;;28.20;84.90;;;;;;5067426;28;20028;-46
2021/11/21 05:51:55;;;;;;;47.75;9.30;;;28.30;85.00;;;;;;5067072;28;20025;-47
2021/11/21 05:54:22;;;;;;;30.67;7.45;;;28.30;85.10;;;;;;5066793;28;20025;-46
2021/11/21 05:56:49;;;;;;;30.30;6.68;;;28.20;84.90;;;;;;5066634;28;20025;-45
2021/11/21 05:59:15;;;;;;;20.80;6.75;;;28.30;85.20;;;;;;5066900;28;20097;-45
2021/11/21 06:01:42;;;;;;;14.80;6.72;;;28.20;85.20;;;;;;5066851;28;20021;-51
2021/11/21 06:04:09;;;;;;;18.98;8.57;;;28.20;85.30;;;;;;5066858;28;20032;-50
2021/11/21 06:06:35;;;;;;;20.55;8.45;;;28.20;85.40;;;;;;5066391;28;20320;-46
2021/11/21 06:09:02;;;;;;;14.15;8.00;;;28.10;85.40;;;;;;5066760;28;20036;-47
2021/11/21 06:11:29;;;;;;;15.18;7.20;;;28.10;85.60;;;;;;5066684;28;20028;-44
2021/11/21 06:13:55;;;;;;;17.88;6.80;;;28.10;85.70;;;;;;5065683;28;20039;-44
2021/11/21 06:16:22;;;;;;;15.57;6.90;;;28.10;85.60;;;;;;5066720;28;20021;-48
2021/11/21 06:18:49;;;;;;;11.40;6.50;;;28.10;85.50;;;;;;5066904;28;20029;-47
2021/11/21 06:21:18;;;;;;;10.73;6.50;;;28.10;85.50;;;;;;5066489;28;20166;-42
2021/11/21 06:23:45;;;;;;;9.25;5.93;;;28.10;85.80;;;;;;5066795;28;20029;-48
2021/11/21 06:26:12;;;;;;;8.40;5.85;;;28.10;85.80;;;;;;5066655;28;20205;-46
2021/11/21 06:28:39;;;;;;;8.02;5.80;;;28.00;85.70;;;;;;5066873;28;20035;-46
2021/11/21 06:31:06;;;;;;;12.25;5.72;;;28.00;85.70;;;;;;5066539;28;20031;-46
2021/11/21 06:33:33;;;;;;;7.78;5.90;;;28.10;85.70;;;;;;5066678;28;20029;-46
2021/11/21 06:35:59;;;;;;;9.80;5.65;;;28.10;85.80;;;;;;5066420;28;20025;-43
2021/11/21 06:38:26;;;;;;;9.65;5.65;;;28.10;85.80;;;;;;5066543;28;20044;-45
2021/11/21 06:40:53;;;;;;;10.32;6.22;;;28.00;85.90;;;;;;5066270;28;20013;-47
2021/11/21 06:43:19;;;;;;;11.43;7.68;;;28.00;86.00;;;;;;5066417;28;20032;-43
2021/11/21 06:45:46;;;;;;;14.07;9.93;;;28.00;86.00;;;;;;5065851;28;20021;-46
2021/11/21 06:48:14;;;;;;;29.40;15.65;;;28.00;86.00;;;;;;5065881;28;20111;-44
2021/11/21 06:50:42;;;;;;;36.83;20.50;;;28.00;85.90;;;;;;5065738;28;20325;-44
2021/11/21 06:53:09;;;;;;;29.65;18.25;;;28.00;86.00;;;;;;5065963;28;20028;-45
2021/11/21 06:55:36;;;;;;;29.85;14.68;;;28.00;85.90;;;;;;5065545;28;20025;-48
2021/11/21 06:58:03;;;;;;;15.57;10.73;;;28.00;85.90;;;;;;5065541;28;20074;-47
2021/11/21 07:00:29;;;;;;;16.23;9.65;;;28.00;85.90;;;;;;5065659;28;20017;-48
2021/11/21 07:02:56;;;;;;;12.25;8.80;;;28.00;85.90;;;;;;5065307;28;20021;-43
2021/11/21 07:05:23;;;;;;;12.70;7.60;;;28.00;85.80;;;;;;5065180;28;20041;-48
2021/11/21 07:07:49;;;;;;;12.70;7.55;;;28.00;85.90;;;;;;5065146;28;20028;-47
2021/11/21 07:10:16;;;;;;;12.48;6.63;;;27.90;85.90;;;;;;5065791;28;20029;-46
2021/11/21 07:12:42;;;;;;;13.82;7.68;;;27.90;85.90;;;;;;5065040;28;20023;-47
2021/11/21 07:15:09;;;;;;;13.55;8.75;;;27.90;85.70;;;;;;5066037;28;20068;-48
2021/11/21 07:17:36;;;;;;;14.75;7.93;;;27.90;85.60;;;;;;5065529;28;20169;-44
2021/11/21 07:20:05;;;;;;;11.75;6.80;;;27.90;85.50;;;;;;5065803;28;20040;-49
2021/11/21 07:22:32;;;;;;;10.77;6.47;;;27.80;85.30;;;;;;5064944;28;20021;-50
2021/11/21 07:24:59;;;;;;;11.63;7.35;;;27.80;85.40;;;;;;5065749;28;20308;-48
2021/11/21 07:27:26;;;;;;;14.50;7.95;;;27.80;85.20;;;;;;5065443;28;20021;-46
2021/11/21 07:29:53;;;;;;;14.35;9.65;;;27.80;85.30;;;;;;5065468;28;20029;-46
2021/11/21 07:32:19;;;;;;;13.20;8.95;;;27.80;85.30;;;;;;5065134;28;20097;-47
2021/11/21 07:34:46;;;;;;;11.10;7.88;;;27.80;85.30;;;;;;5065100;28;20247;-44
2021/11/21 07:37:12;;;;;;;10.25;8.00;;;27.80;85.30;;;;;;5065026;28;20032;-45
2021/11/21 07:39:39;;;;;;;13.82;7.88;;;27.70;85.40;;;;;;5065213;28;20237;-45
2021/11/21 07:42:06;;;;;;;12.75;8.25;;;27.70;85.40;;;;;;5064907;28;20013;-49
2021/11/21 07:44:32;;;;;;;13.15;7.50;;;27.70;85.40;;;;;;5065096;28;20021;-53
2021/11/21 07:46:59;;;;;;;10.52;6.43;;;27.70;85.40;;;;;;5064983;28;20028;-48
2021/11/21 07:49:26;;;;;;;9.98;6.18;;;27.70;85.40;;;;;;5065090;28;20036;-45
2021/11/21 07:51:52;;;;;;;8.07;6.00;;;27.70;85.50;;;;;;5065095;28;20095;-49
2021/11/21 07:54:19;;;;;;;8.40;5.80;;;27.70;85.50;;;;;;5065263;28;20111;-52
2021/11/21 07:56:45;;;;;;;7.78;6.03;;;27.70;85.50;;;;;;5064878;28;20020;-47
2021/11/21 07:59:12;;;;;;;11.35;6.13;;;27.70;85.50;;;;;;5065128;28;20056;-46
2021/11/21 08:01:39;;;;;;;9.68;6.15;;;27.70;85.60;;;;;;5064850;28;20130;-47
2021/11/21 08:04:05;;;;;;;10.63;5.80;;;27.70;86.30;;;;;;5064683;28;20298;-46
2021/11/21 08:06:32;;;;;;;12.00;5.68;;;27.70;85.90;;;;;;5064245;28;20049;-44
2021/11/21 08:08:59;;;;;;;7.10;5.57;;;27.60;85.90;;;;;;5064728;28;20029;-44
2021/11/21 08:11:25;;;;;;;10.18;5.78;;;27.70;85.90;;;;;;5064561;28;20025;-45
2021/11/21 08:13:52;;;;;;;10.32;5.47;;;27.60;85.80;;;;;;5064974;28;20039;-43
2021/11/21 08:16:19;;;;;;;7.53;6.05;;;27.60;85.80;;;;;;5064591;28;20300;-45
2021/11/21 08:18:45;;;;;;;9.27;6.20;;;27.60;86.00;;;;;;5064527;28;20025;-47
2021/11/21 08:21:12;;;;;;;12.02;6.88;;;27.60;86.10;;;;;;5064790;28;20021;-43
2021/11/21 08:23:38;;;;;;;10.15;7.15;;;27.60;86.10;;;;;;5064479;28;20075;-45
2021/11/21 08:26:05;;;;;;;10.50;7.32;;;27.60;86.10;;;;;;5063256;28;20241;-42
2021/11/21 08:28:32;;;;;;;17.40;9.02;;;27.60;86.00;;;;;;5064944;28;20174;-50
2021/11/21 08:30:59;;;;;;;10.93;7.63;;;27.50;86.00;;;;;;5064434;28;20020;-47
2021/11/21 08:33:26;;;;;;;12.10;7.18;;;27.50;86.00;;;;;;5064316;28;20205;-43
2021/11/21 08:35:52;;;;;;;8.35;6.22;;;27.50;86.00;;;;;;5063913;28;20044;-47
2021/11/21 08:38:19;;;;;;;9.85;6.47;;;27.50;86.00;;;;;;5068587;28;20021;-49
2021/11/21 08:40:45;;;;;;;9.82;6.28;;;27.50;86.10;;;;;;5068328;28;20025;-45
2021/11/21 08:43:12;;;;;;;10.35;6.13;;;27.50;86.10;;;;;;5068314;28;20324;-48
2021/11/21 08:45:39;;;;;;;7.93;6.10;;;27.50;86.10;;;;;;5068375;28;20029;-43
2021/11/21 08:48:05;;;;;;;8.07;5.72;;;27.40;86.10;;;;;;5067974;28;20021;-44
2021/11/21 08:50:33;;;;;;;9.82;6.40;;;27.40;86.00;;;;;;5068343;28;20092;-45
2021/11/21 08:52:59;;;;;;;12.80;6.65;;;27.40;86.00;;;;;;5068124;28;20013;-45
2021/11/21 08:55:27;;;;;;;16.90;7.03;;;27.40;86.00;;;;;;5068181;28;20027;-46
2021/11/21 08:57:54;;;;;;;10.38;6.82;;;27.40;86.00;;;;;;5068047;28;20021;-43
2021/11/21 09:00:21;;;;;;;11.73;6.05;;;27.40;86.00;;;;;;5068121;28;20202;-44
2021/11/21 09:02:49;;;;;;;11.57;6.50;;;27.40;86.00;;;;;;5068563;28;20249;-44
2021/11/21 09:05:16;;;;;;;14.40;6.70;;;27.40;85.90;;;;;;5067631;28;20271;-48
2021/11/21 09:07:45;;;;;;;9.88;5.68;;;27.40;86.00;;;;;;5067316;28;20052;-47
2021/11/21 09:10:15;;;;;;;9.93;5.90;;;27.40;85.90;;;;;;5067844;28;20043;-45
2021/11/21 09:12:42;;;;;;;8.40;6.13;;;27.40;85.90;;;;;;5067266;28;20401;-50
2021/11/21 09:15:11;;;;;;;9.55;6.70;;;27.40;86.00;;;;;;5068111;28;20044;-45
2021/11/21 09:17:38;;;;;;;15.23;6.60;;;27.40;86.00;;;;;;5067107;28;20024;-45
2021/11/21 09:20:05;;;;;;;13.18;6.93;;;27.40;86.00;;;;;;5067511;28;20298;-48
2021/11/21 09:22:32;;;;;;;14.63;8.52;;;27.40;86.00;;;;;;5067296;28;20355;-47
2021/11/21 09:24:59;;;;;;;13.45;8.95;;;27.40;86.00;;;;;;5067672;28;20309;-46
2021/11/21 09:27:25;;;;;;;14.68;9.90;;;27.40;86.00;;;;;;5067307;28;20155;-52
2021/11/21 09:29:52;;;;;;;11.00;8.77;;;27.40;86.10;;;;;;5067219;28;20033;-44
2021/11/21 09:32:18;;;;;;;11.05;7.18;;;27.30;86.10;;;;;;5067063;28;20066;-49
2021/11/21 09:34:46;;;;;;;10.30;6.97;;;27.40;86.20;;;;;;5067622;28;20302;-43
2021/11/21 09:37:14;;;;;;;11.20;6.80;;;27.40;86.20;;;;;;5066868;28;20032;-48
2021/11/21 09:39:40;;;;;;;8.02;6.43;;;27.40;86.20;;;;;;5067246;28;20021;-50
2021/11/21 09:42:07;;;;;;;6.97;5.57;;;27.30;86.20;;;;;;5066828;28;20209;-51
2021/11/21 09:44:33;;;;;;;8.05;6.22;;;27.30;86.20;;;;;;5067086;28;20025;-44
2021/11/21 09:47:00;;;;;;;7.85;6.00;;;27.30;86.20;;;;;;5067182;28;20066;-45
2021/11/21 09:49:28;;;;;;;7.60;5.70;;;27.30;86.40;;;;;;5067162;28;20029;-44
2021/11/21 09:51:55;;;;;;;8.10;5.40;;;27.30;86.40;;;;;;5067262;28;20363;-45
2021/11/21 09:54:28;;;;;;;8.75;5.53;;;27.30;86.50;;;;;;5067025;28;20028;-43
2021/11/21 09:56:56;;;;;;;9.77;6.00;;;27.30;86.60;;;;;;5066307;28;20087;-45
2021/11/21 10:00:10;;;;;;;6.72;5.22;;;27.30;86.70;;;;;;5067208;28;20024;-45
2021/11/21 10:02:43;;;;;;;7.60;5.40;;;27.30;86.80;;;;;;5054317;28;20028;-44
2021/11/21 10:05:27;;;;;;;9.10;5.43;;;27.20;86.90;;;;;;5066370;28;20046;-45
2021/11/21 10:08:08;;;;;;;11.13;5.60;;;27.30;87.00;;;;;;5066347;28;20094;-44
2021/11/21 10:10:56;;;;;;;9.13;5.50;;;27.20;87.00;;;;;;5065057;28;20233;-49
2021/11/21 10:13:29;;;;;;;8.43;5.90;;;27.20;86.90;;;;;;5059368;28;20079;-45
2021/11/21 10:15:57;;;;;;;13.38;6.30;;;27.20;87.10;;;;;;5066036;28;20024;-46
2021/11/21 10:18:23;;;;;;;8.77;5.50;;;27.30;87.10;;;;;;5066383;28;20048;-45
2021/11/21 10:20:50;;;;;;;7.95;5.80;;;27.20;87.10;;;;;;5066223;28;20017;-51
2021/11/21 10:23:19;;;;;;;7.68;5.80;;;27.20;87.20;;;;;;5066367;28;20221;-54
2021/11/21 10:25:52;;;;;;;9.13;5.70;;;27.20;87.20;;;;;;5066080;28;20080;-46
2021/11/21 10:28:25;;;;;;;10.18;5.95;;;27.20;87.10;;;;;;5066348;28;20032;-45
2021/11/21 10:30:59;;;;;;;6.97;5.07;;;27.20;87.70;;;;;;5065815;28;20223;-44
2021/11/21 10:33:38;;;;;;;9.20;5.85;;;27.20;87.30;;;;;;5066083;28;20320;-49
2021/11/21 10:36:22;;;;;;;15.02;6.20;;;27.20;87.20;;;;;;5065952;28;20214;-44
2021/11/21 10:38:49;;;;;;;113.00;11.52;;;27.20;87.10;;;;;;5065812;28;20025;-44
2021/11/21 10:41:23;;;;;;;9.40;5.70;;;27.20;87.00;;;;;;5065725;28;20081;-45
2021/11/21 10:44:07;;;;;;;9.77;5.50;;;27.20;87.00;;;;;;5065985;28;20067;-44
2021/11/21 10:47:05;;;;;;;9.88;6.25;;;27.20;87.20;;;;;;5065606;28;20043;-45
2021/11/21 10:49:36;;;;;;;10.80;6.10;;;27.20;87.10;;;;;;5056833;28;20049;-50
2021/11/21 10:52:18;;;;;;;11.73;5.68;;;27.20;87.10;;;;;;5065757;28;20013;-49
2021/11/21 10:54:51;;;;;;;85.00;10.57;;;27.20;86.90;;;;;;5066197;28;20025;-49
2021/11/21 10:57:34;;;;;;;96.18;11.88;;;27.20;87.20;;;;;;5065382;28;20309;-46
2021/11/21 11:00:12;;;;;;;90.03;11.30;;;27.20;87.40;;;;;;5064998;28;20204;-43
2021/11/21 11:02:41;;;;;;;81.65;10.55;;;27.20;87.70;;;;;;5065328;28;20332;-48
2021/11/21 11:05:12;;;;;;;52.80;9.30;;;27.10;87.80;;;;;;5065169;28;20039;-51
2021/11/21 11:07:47;;;;;;;60.28;9.15;;;27.20;87.90;;;;;;5065266;28;20021;-49
2021/11/21 11:10:17;;;;;;;47.70;8.68;;;27.20;88.00;;;;;;5065517;28;20355;-48
2021/11/21 11:12:50;;;;;;;45.88;8.77;;;27.10;88.00;;;;;;5065576;28;20029;-48
2021/11/21 11:15:17;;;;;;;31.00;8.50;;;27.10;88.00;;;;;;5065075;28;20031;-45
2021/11/21 11:17:44;;;;;;;42.92;9.10;;;27.10;88.20;;;;;;5064723;28;20058;-47
2021/11/21 11:20:13;;;;;;;47.13;9.07;;;27.10;88.30;;;;;;5065311;28;20029;-45
2021/11/21 11:22:40;;;;;;;50.47;8.52;;;27.10;88.40;;;;;;5064891;28;20363;-47
2021/11/21 11:25:12;;;;;;;50.95;8.85;;;27.10;88.50;;;;;;5065121;28;20209;-45
2021/11/21 11:27:50;;;;;;;63.95;9.77;;;27.10;88.60;;;;;;5064807;28;20080;-54
2021/11/21 11:30:18;;;;;;;47.13;8.80;;;27.10;88.60;;;;;;5064732;28;20256;-47
2021/11/21 11:32:47;;;;;;;51.75;8.60;;;27.10;88.80;;;;;;5064804;28;20139;-44
2021/11/21 11:35:20;;;;;;;41.25;7.93;;;27.20;88.80;;;;;;5065043;28;20264;-45
2021/11/21 11:37:47;;;;;;;;;;;27.10;89.10;;;;;;5064732;28;20025;-46
2021/11/21 11:40:30;;;;;;;45.28;8.90;;;27.10;89.30;;;;;;5064959;28;20115;-46
2021/11/21 11:43:20;;;;;;;34.67;9.23;;;27.10;89.80;;;;;;5064891;28;20301;-46
2021/11/21 11:45:56;;;;;;;31.08;8.63;;;27.10;90.00;;;;;;5064363;28;20016;-43
2021/11/21 11:49:04;;;;;;;27.85;7.90;;;27.10;90.20;;;;;;5064259;28;20067;-48
2021/11/21 11:51:31;;;;;;;25.27;7.65;;;27.10;90.30;;;;;;5064187;28;20021;-45
2021/11/21 11:54:21;;;;;;;24.55;7.53;;;27.10;90.30;;;;;;5064548;28;20028;-48
2021/11/21 11:56:48;;;;;;;21.75;7.07;;;27.10;90.50;;;;;;5064130;28;20029;-45
2021/11/21 11:59:39;;;;;;;18.20;7.60;;;27.10;90.60;;;;;;5064042;28;20036;-47
2021/11/21 12:02:27;;;;;;;20.10;7.93;;;27.00;90.60;;;;;;5064129;28;20039;-45
2021/11/21 12:04:56;;;;;;;14.55;7.63;;;27.10;90.70;;;;;;5064559;28;20049;-51
2021/11/21 12:07:29;;;;;;;18.20;8.07;;;27.00;90.70;;;;;;5064008;28;20017;-46
2021/11/21 12:10:15;;;;;;;14.57;7.88;;;27.00;90.80;;;;;;5064477;28;20052;-48
2021/11/21 12:13:02;;;;;;;14.57;7.32;;;27.00;91.00;;;;;;5063559;28;20020;-45
2021/11/21 12:15:35;;;;;;;14.88;7.28;;;27.00;90.80;;;;;;5064027;28;20033;-43
2021/11/21 12:18:06;;;;;;;14.75;7.13;;;27.00;90.80;;;;;;5064070;28;20021;-53
2021/11/21 12:20:52;;;;;;;15.82;7.05;;;27.10;90.80;;;;;;5063895;28;20013;-48
2021/11/21 12:23:43;;;;;;;12.98;7.18;;;27.00;90.80;;;;;;5063886;28;20080;-45
2021/11/21 12:26:39;;;;;;;11.80;7.63;;;27.00;90.80;;;;;;5063797;28;20321;-47
2021/11/21 12:29:29;;;;;;;12.48;7.65;;;27.00;90.80;;;;;;5064121;28;20258;-49
2021/11/21 12:32:00;;;;;;;13.13;8.45;;;26.90;90.90;;;;;;5064018;28;20024;-46
2021/11/21 12:34:33;;;;;;;20.55;9.32;;;26.90;91.00;;;;;;5064160;28;20031;-48
2021/11/21 12:37:19;;;;;;;17.95;9.38;;;26.90;90.90;;;;;;5063694;28;20024;-49
2021/11/21 12:40:16;;;;;;;14.48;8.60;;;26.90;91.00;;;;;;5064231;28;20053;-47
2021/11/21 12:42:43;;;;;;;20.48;10.23;;;27.00;90.90;;;;;;5063406;28;20318;-47
2021/11/21 12:45:16;;;;;;;15.23;9.27;;;26.90;91.00;;;;;;5063417;28;20048;-44